sensor_id;sensor_type;location;lat;lon;timestamp;pressure;altitude;pressure_sealevel;temperature;humidity
3524;BME280;1776;53.330;11.498;2022-08-16T00:00:12;53531.38;;;-147.39;64.97
3524;BME280;1776;53.330;11.498;2022-08-16T00:02:38;53523.19;;;-147.39;64.71
3524;BME280;1776;53.330;11.498;2022-08-16T00:05:05;53537.53;;;-147.39;64.98
3524;BME280;1776;53.330;11.498;2022-08-16T00:07:31;53543.66;;;-147.39;64.91
3524;BME280;1776;53.330;11.498;2022-08-16T00:09:57;53543.66;;;-147.39;64.91
3524;BME280;1776;53.330;11.498;2022-08-16T00:12:23;53529.31;;;-147.39;65.08
3524;BME280;1776;53.330;11.498;2022-08-16T00:14:49;53572.34;;;-147.39;64.97
3524;BME280;1776;53.330;11.498;2022-08-16T00:17:14;53570.28;;;-147.39;65.00
3524;BME280;1776;53.330;11.498;2022-08-16T00:19:40;53547.75;;;-147.39;65.10
3524;BME280;1776;53.330;11.498;2022-08-16T00:22:05;53549.81;;;-147.39;64.80
3524;BME280;1776;53.330;11.498;2022-08-16T00:24:30;53535.47;;;-147.39;64.94
3524;BME280;1776;53.330;11.498;2022-08-16T00:26:56;53564.16;;;-147.39;64.85
3524;BME280;1776;53.330;11.498;2022-08-16T00:29:21;53543.66;;;-147.39;65.07
3524;BME280;1776;53.330;11.498;2022-08-16T00:31:49;53531.38;;;-147.39;65.24
3524;BME280;1776;53.330;11.498;2022-08-16T00:34:15;53543.66;;;-147.39;65.49
3524;BME280;1776;53.330;11.498;2022-08-16T00:36:41;53539.56;;;-147.39;66.25
3524;BME280;1776;53.330;11.498;2022-08-16T00:39:10;53558.00;;;-147.39;66.27
3524;BME280;1776;53.330;11.498;2022-08-16T00:41:36;53553.91;;;-147.39;66.75
3524;BME280;1776;53.330;11.498;2022-08-16T00:44:03;53584.63;;;-147.39;66.69
3524;BME280;1776;53.330;11.498;2022-08-16T00:46:40;53566.19;;;-147.39;66.85
3524;BME280;1776;53.330;11.498;2022-08-16T00:49:08;53566.19;;;-147.39;67.79
3524;BME280;1776;53.330;11.498;2022-08-16T00:51:34;53558.00;;;-147.39;68.05
3524;BME280;1776;53.330;11.498;2022-08-16T00:54:00;53545.72;;;-147.39;67.20
3524;BME280;1776;53.330;11.498;2022-08-16T00:56:28;53582.59;;;-147.39;67.29
3524;BME280;1776;53.330;11.498;2022-08-16T00:58:54;53592.81;;;-147.39;66.74
3524;BME280;1776;53.330;11.498;2022-08-16T01:01:20;53566.19;;;-147.39;67.10
3524;BME280;1776;53.330;11.498;2022-08-16T01:03:47;53580.53;;;-147.39;67.06
3524;BME280;1776;53.330;11.498;2022-08-16T01:06:15;53570.28;;;-147.39;67.27
3524;BME280;1776;53.330;11.498;2022-08-16T01:08:44;53586.69;;;-147.39;66.96
3524;BME280;1776;53.330;11.498;2022-08-16T01:11:10;53560.06;;;-147.39;67.12
3524;BME280;1776;53.330;11.498;2022-08-16T01:13:37;53580.53;;;-147.39;66.72
3524;BME280;1776;53.330;11.498;2022-08-16T01:16:07;53564.16;;;-147.39;67.06
3524;BME280;1776;53.330;11.498;2022-08-16T01:18:39;53572.34;;;-147.39;66.80
3524;BME280;1776;53.330;11.498;2022-08-16T01:21:25;53580.53;;;-147.39;66.53
3524;BME280;1776;53.330;11.498;2022-08-16T01:24:02;53558.00;;;-147.39;66.65
3524;BME280;1776;53.330;11.498;2022-08-16T01:26:30;53549.81;;;-147.39;66.48
3524;BME280;1776;53.330;11.498;2022-08-16T01:28:59;53572.34;;;-147.39;66.84
3524;BME280;1776;53.330;11.498;2022-08-16T01:31:26;53560.06;;;-147.39;68.01
3524;BME280;1776;53.330;11.498;2022-08-16T01:33:53;53568.25;;;-147.39;67.98
3524;BME280;1776;53.330;11.498;2022-08-16T01:36:19;53576.44;;;-147.39;68.25
3524;BME280;1776;53.330;11.498;2022-08-16T01:38:46;53584.63;;;-147.39;68.74
3524;BME280;1776;53.330;11.498;2022-08-16T01:41:26;53566.19;;;-147.39;69.40
3524;BME280;1776;53.330;11.498;2022-08-16T01:43:53;53598.97;;;-147.39;69.89
3524;BME280;1776;53.330;11.498;2022-08-16T01:46:27;53592.81;;;-147.39;70.43
3524;BME280;1776;53.330;11.498;2022-08-16T01:49:23;53578.50;;;-147.39;70.63
3524;BME280;1776;53.330;11.498;2022-08-16T01:51:55;53611.25;;;-147.39;69.82
3524;BME280;1776;53.330;11.498;2022-08-16T01:54:21;53615.38;;;-147.39;70.31
3524;BME280;1776;53.330;11.498;2022-08-16T01:56:46;53607.16;;;-147.39;70.97
3524;BME280;1776;53.330;11.498;2022-08-16T01:59:13;53594.88;;;-147.39;70.78
3524;BME280;1776;53.330;11.498;2022-08-16T02:01:39;53596.94;;;-147.39;71.29
3524;BME280;1776;53.330;11.498;2022-08-16T02:04:05;53594.88;;;-147.39;71.98
3524;BME280;1776;53.330;11.498;2022-08-16T02:06:31;53609.22;;;-147.39;72.30
3524;BME280;1776;53.330;11.498;2022-08-16T02:08:56;53605.13;;;-147.39;72.28
3524;BME280;1776;53.330;11.498;2022-08-16T02:11:23;53590.78;;;-147.39;72.45
3524;BME280;1776;53.330;11.498;2022-08-16T02:13:49;53596.94;;;-147.39;72.22
3524;BME280;1776;53.330;11.498;2022-08-16T02:16:16;53564.16;;;-147.39;72.03
3524;BME280;1776;53.330;11.498;2022-08-16T02:18:41;53615.38;;;-147.39;72.05
3524;BME280;1776;53.330;11.498;2022-08-16T02:21:08;53619.47;;;-147.39;71.59
3524;BME280;1776;53.330;11.498;2022-08-16T02:23:35;53580.53;;;-147.39;71.86
3524;BME280;1776;53.330;11.498;2022-08-16T02:26:01;53584.63;;;-147.39;72.07
3524;BME280;1776;53.330;11.498;2022-08-16T02:28:27;53580.53;;;-147.39;71.77
3524;BME280;1776;53.330;11.498;2022-08-16T02:30:54;53619.47;;;-147.39;71.31
3524;BME280;1776;53.330;11.498;2022-08-16T02:33:21;53564.16;;;-147.39;70.81
3524;BME280;1776;53.330;11.498;2022-08-16T02:35:47;53611.25;;;-147.39;70.98
3524;BME280;1776;53.330;11.498;2022-08-16T02:38:12;53592.81;;;-147.39;70.67
3524;BME280;1776;53.330;11.498;2022-08-16T02:40:37;53586.69;;;-147.39;71.42
3524;BME280;1776;53.330;11.498;2022-08-16T02:43:04;53613.31;;;-147.39;71.65
3524;BME280;1776;53.330;11.498;2022-08-16T02:45:30;53613.31;;;-147.39;72.55
3524;BME280;1776;53.330;11.498;2022-08-16T02:47:56;53615.38;;;-147.39;72.50
3524;BME280;1776;53.330;11.498;2022-08-16T02:50:23;53627.66;;;-147.39;72.76
3524;BME280;1776;53.330;11.498;2022-08-16T02:52:49;53598.97;;;-147.39;72.56
3524;BME280;1776;53.330;11.498;2022-08-16T02:55:15;53617.41;;;-147.39;72.31
3524;BME280;1776;53.330;11.498;2022-08-16T02:57:40;53580.53;;;-147.39;72.14
3524;BME280;1776;53.330;11.498;2022-08-16T03:00:08;53619.47;;;-147.39;71.72
3524;BME280;1776;53.330;11.498;2022-08-16T03:02:35;53607.16;;;-147.39;71.79
3524;BME280;1776;53.330;11.498;2022-08-16T03:05:02;53601.03;;;-147.39;71.76
3524;BME280;1776;53.330;11.498;2022-08-16T03:07:28;53586.69;;;-147.39;71.52
3524;BME280;1776;53.330;11.498;2022-08-16T03:09:54;53596.94;;;-147.39;71.40
3524;BME280;1776;53.330;11.498;2022-08-16T03:12:19;53627.66;;;-147.39;71.33
3524;BME280;1776;53.330;11.498;2022-08-16T03:14:46;53592.81;;;-147.39;70.94
3524;BME280;1776;53.330;11.498;2022-08-16T03:17:11;53601.03;;;-147.39;70.60
3524;BME280;1776;53.330;11.498;2022-08-16T03:19:36;53584.63;;;-147.39;70.49
3524;BME280;1776;53.330;11.498;2022-08-16T03:22:02;53601.03;;;-147.39;70.10
3524;BME280;1776;53.330;11.498;2022-08-16T03:24:27;53584.63;;;-147.39;70.48
3524;BME280;1776;53.330;11.498;2022-08-16T03:26:53;53605.13;;;-147.39;69.83
3524;BME280;1776;53.330;11.498;2022-08-16T03:29:19;53594.88;;;-147.39;70.33
3524;BME280;1776;53.330;11.498;2022-08-16T03:31:45;53598.97;;;-147.39;70.58
3524;BME280;1776;53.330;11.498;2022-08-16T03:34:11;53601.03;;;-147.39;70.46
3524;BME280;1776;53.330;11.498;2022-08-16T03:36:36;53631.75;;;-147.39;71.05
3524;BME280;1776;53.330;11.498;2022-08-16T03:39:01;53594.88;;;-147.39;70.90
3524;BME280;1776;53.330;11.498;2022-08-16T03:41:27;53613.31;;;-147.39;71.26
3524;BME280;1776;53.330;11.498;2022-08-16T03:43:52;53621.50;;;-147.39;71.15
3524;BME280;1776;53.330;11.498;2022-08-16T03:46:21;53598.97;;;-147.39;70.96
3524;BME280;1776;53.330;11.498;2022-08-16T03:48:47;53629.69;;;-147.39;70.41
3524;BME280;1776;53.330;11.498;2022-08-16T03:51:13;53588.72;;;-147.39;70.69
3524;BME280;1776;53.330;11.498;2022-08-16T03:53:40;53601.03;;;-147.39;70.61
3524;BME280;1776;53.330;11.498;2022-08-16T03:56:06;53605.13;;;-147.39;71.06
3524;BME280;1776;53.330;11.498;2022-08-16T03:58:33;53594.88;;;-147.39;70.69
3524;BME280;1776;53.330;11.498;2022-08-16T04:00:58;53592.81;;;-147.39;70.62
3524;BME280;1776;53.330;11.498;2022-08-16T04:03:23;53617.41;;;-147.39;69.69
3524;BME280;1776;53.330;11.498;2022-08-16T04:05:50;53627.66;;;-147.39;69.23
3524;BME280;1776;53.330;11.498;2022-08-16T04:08:17;53588.72;;;-147.39;69.43
3524;BME280;1776;53.330;11.498;2022-08-16T04:10:43;53607.16;;;-147.39;69.00
3524;BME280;1776;53.330;11.498;2022-08-16T04:13:09;53598.97;;;-147.39;69.17
3524;BME280;1776;53.330;11.498;2022-08-16T04:15:34;53588.72;;;-147.39;69.29
3524;BME280;1776;53.330;11.498;2022-08-16T04:17:59;53609.22;;;-147.39;70.03
3524;BME280;1776;53.330;11.498;2022-08-16T04:20:25;53598.97;;;-147.39;69.99
3524;BME280;1776;53.330;11.498;2022-08-16T04:22:51;53601.03;;;-147.39;70.03
3524;BME280;1776;53.330;11.498;2022-08-16T04:25:16;53633.81;;;-147.39;70.09
3524;BME280;1776;53.330;11.498;2022-08-16T04:27:42;53603.06;;;-147.39;70.11
3524;BME280;1776;53.330;11.498;2022-08-16T04:30:10;53611.25;;;-147.39;69.94
3524;BME280;1776;53.330;11.498;2022-08-16T04:32:37;53617.41;;;-147.39;69.86
3524;BME280;1776;53.330;11.498;2022-08-16T04:35:04;53615.38;;;-147.39;69.58
3524;BME280;1776;53.330;11.498;2022-08-16T04:37:30;53592.81;;;-147.39;69.71
3524;BME280;1776;53.330;11.498;2022-08-16T04:39:55;53598.97;;;-147.39;69.53
3524;BME280;1776;53.330;11.498;2022-08-16T04:42:21;53611.25;;;-147.39;69.18
3524;BME280;1776;53.330;11.498;2022-08-16T04:44:46;53617.41;;;-147.39;69.01
3524;BME280;1776;53.330;11.498;2022-08-16T04:47:11;53629.69;;;-147.39;69.08
3524;BME280;1776;53.330;11.498;2022-08-16T04:49:37;53639.94;;;-147.39;69.87
3524;BME280;1776;53.330;11.498;2022-08-16T04:52:03;53603.06;;;-147.39;70.73
3524;BME280;1776;53.330;11.498;2022-08-16T04:54:28;53605.13;;;-147.39;71.46
3524;BME280;1776;53.330;11.498;2022-08-16T04:56:53;53617.41;;;-147.39;71.50
3524;BME280;1776;53.330;11.498;2022-08-16T04:59:19;53625.59;;;-147.39;71.78
3524;BME280;1776;53.330;11.498;2022-08-16T05:01:44;53625.59;;;-147.39;72.20
3524;BME280;1776;53.330;11.498;2022-08-16T05:04:09;53637.91;;;-147.39;71.65
3524;BME280;1776;53.330;11.498;2022-08-16T05:06:35;53625.59;;;-147.39;71.46
3524;BME280;1776;53.330;11.498;2022-08-16T05:09:00;53627.66;;;-147.39;71.80
3524;BME280;1776;53.330;11.498;2022-08-16T05:11:26;53635.84;;;-147.39;72.24
3524;BME280;1776;53.330;11.498;2022-08-16T05:13:53;53609.22;;;-147.39;72.14
3524;BME280;1776;53.330;11.498;2022-08-16T05:16:22;53639.94;;;-147.39;72.29
3524;BME280;1776;53.330;11.498;2022-08-16T05:18:49;53631.75;;;-147.39;72.07
3524;BME280;1776;53.330;11.498;2022-08-16T05:21:15;53633.81;;;-147.39;72.43
3524;BME280;1776;53.330;11.498;2022-08-16T05:23:40;53633.81;;;-147.39;72.43
3524;BME280;1776;53.330;11.498;2022-08-16T05:26:06;53627.66;;;-147.39;71.96
3524;BME280;1776;53.330;11.498;2022-08-16T05:28:31;53617.41;;;-147.39;73.18
3524;BME280;1776;53.330;11.498;2022-08-16T05:30:56;53642.00;;;-147.39;74.00
3524;BME280;1776;53.330;11.498;2022-08-16T05:33:22;53637.91;;;-147.39;73.21
3524;BME280;1776;53.330;11.498;2022-08-16T05:35:50;53627.66;;;-147.39;72.55
3524;BME280;1776;53.330;11.498;2022-08-16T05:38:15;53654.28;;;-147.39;72.35
3524;BME280;1776;53.330;11.498;2022-08-16T05:40:41;53644.03;;;-147.39;72.85
3524;BME280;1776;53.330;11.498;2022-08-16T05:43:06;53601.03;;;-147.39;73.31
3524;BME280;1776;53.330;11.498;2022-08-16T05:45:31;53629.69;;;-147.39;73.02
3524;BME280;1776;53.330;11.498;2022-08-16T05:47:57;53646.09;;;-147.39;73.44
3524;BME280;1776;53.330;11.498;2022-08-16T05:50:22;53619.47;;;-147.39;73.34
3524;BME280;1776;53.330;11.498;2022-08-16T05:52:48;53635.84;;;-147.39;73.06
3524;BME280;1776;53.330;11.498;2022-08-16T05:55:13;53609.22;;;-147.39;72.91
3524;BME280;1776;53.330;11.498;2022-08-16T05:57:39;53639.94;;;-147.39;72.70
3524;BME280;1776;53.330;11.498;2022-08-16T06:00:06;53609.22;;;-147.39;72.60
3524;BME280;1776;53.330;11.498;2022-08-16T06:02:33;53627.66;;;-147.39;72.08
3524;BME280;1776;53.330;11.498;2022-08-16T06:04:59;53623.56;;;-147.39;71.96
3524;BME280;1776;53.330;11.498;2022-08-16T06:07:24;53611.25;;;-147.39;71.35
3524;BME280;1776;53.330;11.498;2022-08-16T06:09:49;53619.47;;;-147.39;71.41
3524;BME280;1776;53.330;11.498;2022-08-16T06:12:15;53617.41;;;-147.39;70.69
3524;BME280;1776;53.330;11.498;2022-08-16T06:14:40;53603.06;;;-147.39;70.49
3524;BME280;1776;53.330;11.498;2022-08-16T06:17:06;53635.84;;;-147.39;70.84
3524;BME280;1776;53.330;11.498;2022-08-16T06:19:31;53615.38;;;-147.39;70.63
3524;BME280;1776;53.330;11.498;2022-08-16T06:21:57;53621.50;;;-147.39;71.06
3524;BME280;1776;53.330;11.498;2022-08-16T06:24:22;53590.78;;;-147.39;70.85
3524;BME280;1776;53.330;11.498;2022-08-16T06:26:47;53574.38;;;-147.39;70.85
3524;BME280;1776;53.330;11.498;2022-08-16T06:29:12;53613.31;;;-147.39;70.51
3524;BME280;1776;53.330;11.498;2022-08-16T06:31:38;53603.06;;;-147.39;70.25
3524;BME280;1776;53.330;11.498;2022-08-16T06:34:03;53605.13;;;-147.39;70.31
3524;BME280;1776;53.330;11.498;2022-08-16T06:36:29;53607.16;;;-147.39;70.38
3524;BME280;1776;53.330;11.498;2022-08-16T06:38:54;53582.59;;;-147.39;69.50
3524;BME280;1776;53.330;11.498;2022-08-16T06:41:20;53564.16;;;-147.39;69.28
3524;BME280;1776;53.330;11.498;2022-08-16T06:43:45;53598.97;;;-147.39;69.60
3524;BME280;1776;53.330;11.498;2022-08-16T06:46:24;53574.38;;;-147.39;69.63
3524;BME280;1776;53.330;11.498;2022-08-16T06:48:50;53594.88;;;-147.39;69.88
3524;BME280;1776;53.330;11.498;2022-08-16T06:51:15;53576.44;;;-147.39;69.56
3524;BME280;1776;53.330;11.498;2022-08-16T06:53:40;53601.03;;;-147.39;68.98
3524;BME280;1776;53.330;11.498;2022-08-16T06:56:06;53611.25;;;-147.39;69.14
3524;BME280;1776;53.330;11.498;2022-08-16T06:58:32;53596.94;;;-147.39;69.59
3524;BME280;1776;53.330;11.498;2022-08-16T07:01:01;53598.97;;;-147.39;69.40
3524;BME280;1776;53.330;11.498;2022-08-16T07:03:28;53594.88;;;-147.39;68.94
3524;BME280;1776;53.330;11.498;2022-08-16T07:05:54;53588.72;;;-147.39;68.76
3524;BME280;1776;53.330;11.498;2022-08-16T07:08:21;53580.53;;;-147.39;68.82
3524;BME280;1776;53.330;11.498;2022-08-16T07:10:47;53572.34;;;-147.39;69.22
3524;BME280;1776;53.330;11.498;2022-08-16T07:13:13;53574.38;;;-147.39;68.87
3524;BME280;1776;53.330;11.498;2022-08-16T07:15:38;53601.03;;;-147.39;68.94
3524;BME280;1776;53.330;11.498;2022-08-16T07:18:05;53562.09;;;-147.39;68.85
3524;BME280;1776;53.330;11.498;2022-08-16T07:20:30;53588.72;;;-147.39;68.50
3524;BME280;1776;53.330;11.498;2022-08-16T07:22:55;53584.63;;;-147.39;68.65
3524;BME280;1776;53.330;11.498;2022-08-16T07:25:21;53568.25;;;-147.39;68.74
3524;BME280;1776;53.330;11.498;2022-08-16T07:27:47;53588.72;;;-147.39;68.74
3524;BME280;1776;53.330;11.498;2022-08-16T07:30:13;53572.34;;;-147.39;68.64
3524;BME280;1776;53.330;11.498;2022-08-16T07:32:40;53558.00;;;-147.39;68.63
3524;BME280;1776;53.330;11.498;2022-08-16T07:35:06;53596.94;;;-147.39;68.32
3524;BME280;1776;53.330;11.498;2022-08-16T07:37:31;53574.38;;;-147.39;68.34
3524;BME280;1776;53.330;11.498;2022-08-16T07:39:56;53572.34;;;-147.39;68.67
3524;BME280;1776;53.330;11.498;2022-08-16T07:42:22;53611.25;;;-147.39;68.17
3524;BME280;1776;53.330;11.498;2022-08-16T07:44:47;53558.00;;;-147.39;68.22
3524;BME280;1776;53.330;11.498;2022-08-16T07:47:13;53580.53;;;-147.39;67.77
3524;BME280;1776;53.330;11.498;2022-08-16T07:49:38;53607.16;;;-147.39;67.60
3524;BME280;1776;53.330;11.498;2022-08-16T07:52:04;53547.75;;;-147.39;68.41
3524;BME280;1776;53.330;11.498;2022-08-16T07:54:29;53588.72;;;-147.39;67.53
3524;BME280;1776;53.330;11.498;2022-08-16T07:56:54;53558.00;;;-147.39;67.05
3524;BME280;1776;53.330;11.498;2022-08-16T07:59:20;53564.16;;;-147.39;66.75
3524;BME280;1776;53.330;11.498;2022-08-16T08:01:45;53568.25;;;-147.39;66.15
3524;BME280;1776;53.330;11.498;2022-08-16T08:04:10;53539.56;;;-147.39;65.81
3524;BME280;1776;53.330;11.498;2022-08-16T08:06:38;53558.00;;;-147.39;65.58
3524;BME280;1776;53.330;11.498;2022-08-16T08:09:04;53562.09;;;-147.39;65.09
3524;BME280;1776;53.330;11.498;2022-08-16T08:11:30;53535.47;;;-147.39;65.18
3524;BME280;1776;53.330;11.498;2022-08-16T08:13:57;53533.41;;;-147.39;65.04
3524;BME280;1776;53.330;11.498;2022-08-16T08:16:24;53562.09;;;-147.39;64.69
3524;BME280;1776;53.330;11.498;2022-08-16T08:18:50;53547.75;;;-147.39;65.01
3524;BME280;1776;53.330;11.498;2022-08-16T08:21:19;53537.53;;;-147.39;64.27
3524;BME280;1776;53.330;11.498;2022-08-16T08:23:45;53521.13;;;-147.39;63.48
3524;BME280;1776;53.330;11.498;2022-08-16T08:26:11;53512.94;;;-147.39;63.46
3524;BME280;1776;53.330;11.498;2022-08-16T08:28:37;53517.03;;;-147.39;63.12
3524;BME280;1776;53.330;11.498;2022-08-16T08:31:03;53539.56;;;-147.39;62.85
3524;BME280;1776;53.330;11.498;2022-08-16T08:33:30;53498.59;;;-147.39;63.26
3524;BME280;1776;53.330;11.498;2022-08-16T08:35:57;53517.03;;;-147.39;62.20
3524;BME280;1776;53.330;11.498;2022-08-16T08:38:23;53517.03;;;-147.39;62.64
3524;BME280;1776;53.330;11.498;2022-08-16T08:40:49;53496.53;;;-147.39;62.34
3524;BME280;1776;53.330;11.498;2022-08-16T08:43:14;53498.59;;;-147.39;61.53
3524;BME280;1776;53.330;11.498;2022-08-16T08:45:41;53484.25;;;-147.39;61.45
3524;BME280;1776;53.330;11.498;2022-08-16T08:48:07;53502.69;;;-147.39;61.30
3524;BME280;1776;53.330;11.498;2022-08-16T08:50:32;53512.94;;;-147.39;60.44
3524;BME280;1776;53.330;11.498;2022-08-16T08:52:57;53469.91;;;-147.39;60.24
3524;BME280;1776;53.330;11.498;2022-08-16T08:55:22;53482.22;;;-147.39;58.65
3524;BME280;1776;53.330;11.498;2022-08-16T08:57:49;53502.69;;;-147.39;58.98
3524;BME280;1776;53.330;11.498;2022-08-16T09:00:19;53480.16;;;-147.39;58.60
3524;BME280;1776;53.330;11.498;2022-08-16T09:02:45;53484.25;;;-147.39;58.01
3524;BME280;1776;53.330;11.498;2022-08-16T09:05:12;53482.22;;;-147.39;57.94
3524;BME280;1776;53.330;11.498;2022-08-16T09:07:38;53443.28;;;-147.39;56.55
3524;BME280;1776;53.330;11.498;2022-08-16T09:10:05;53461.72;;;-147.39;56.61
3524;BME280;1776;53.330;11.498;2022-08-16T09:12:31;53480.16;;;-147.39;57.16
3524;BME280;1776;53.330;11.498;2022-08-16T09:14:56;53474.00;;;-147.39;56.72
3524;BME280;1776;53.330;11.498;2022-08-16T09:17:23;53437.13;;;-147.39;56.51
3524;BME280;1776;53.330;11.498;2022-08-16T09:19:49;53451.47;;;-147.39;55.91
3524;BME280;1776;53.330;11.498;2022-08-16T09:22:15;53428.94;;;-147.39;55.17
3524;BME280;1776;53.330;11.498;2022-08-16T09:24:41;53445.34;;;-147.39;54.93
3524;BME280;1776;53.330;11.498;2022-08-16T09:27:06;53445.34;;;-147.39;53.98
3524;BME280;1776;53.330;11.498;2022-08-16T09:29:31;53424.84;;;-147.39;53.00
3524;BME280;1776;53.330;11.498;2022-08-16T09:31:57;53455.56;;;-147.39;53.00
3524;BME280;1776;53.330;11.498;2022-08-16T09:34:23;53431.00;;;-147.39;52.87
3524;BME280;1776;53.330;11.498;2022-08-16T09:36:49;53420.75;;;-147.39;52.31
3524;BME280;1776;53.330;11.498;2022-08-16T09:39:14;53455.56;;;-147.39;52.31
3524;BME280;1776;53.330;11.498;2022-08-16T09:41:39;53412.56;;;-147.39;51.71
3524;BME280;1776;53.330;11.498;2022-08-16T09:44:05;53433.03;;;-147.39;50.68
3524;BME280;1776;53.330;11.498;2022-08-16T09:46:31;53431.00;;;-147.39;50.89
3524;BME280;1776;53.330;11.498;2022-08-16T09:48:56;53422.81;;;-147.39;50.79
3524;BME280;1776;53.330;11.498;2022-08-16T09:51:23;53412.56;;;-147.39;50.89
3524;BME280;1776;53.330;11.498;2022-08-16T09:53:50;53412.56;;;-147.39;50.17
3524;BME280;1776;53.330;11.498;2022-08-16T09:56:30;53418.69;;;-147.39;49.68
3524;BME280;1776;53.330;11.498;2022-08-16T09:58:57;53406.41;;;-147.39;49.60
3524;BME280;1776;53.330;11.498;2022-08-16T10:01:23;53406.41;;;-147.39;47.52
3524;BME280;1776;53.330;11.498;2022-08-16T10:03:49;53385.94;;;-147.39;46.45
3524;BME280;1776;53.330;11.498;2022-08-16T10:06:17;53396.16;;;-147.39;46.70
3524;BME280;1776;53.330;11.498;2022-08-16T10:08:43;53379.78;;;-147.39;46.68
3524;BME280;1776;53.330;11.498;2022-08-16T10:11:09;53396.16;;;-147.39;46.85
3524;BME280;1776;53.330;11.498;2022-08-16T10:13:53;53408.47;;;-147.39;47.83
3524;BME280;1776;53.330;11.498;2022-08-16T10:16:19;53420.75;;;-147.39;47.34
3524;BME280;1776;53.330;11.498;2022-08-16T10:18:45;53408.47;;;-147.39;47.52
3524;BME280;1776;53.330;11.498;2022-08-16T10:21:10;53387.97;;;-147.39;47.38
3524;BME280;1776;53.330;11.498;2022-08-16T10:23:35;53392.06;;;-147.39;46.84
3524;BME280;1776;53.330;11.498;2022-08-16T10:26:01;53371.59;;;-147.39;46.19
3524;BME280;1776;53.330;11.498;2022-08-16T10:28:27;53375.69;;;-147.39;44.74
3524;BME280;1776;53.330;11.498;2022-08-16T10:30:53;53387.97;;;-147.39;45.28
3524;BME280;1776;53.330;11.498;2022-08-16T10:33:18;53355.19;;;-147.39;43.89
3524;BME280;1776;53.330;11.498;2022-08-16T10:35:44;53371.59;;;-147.39;45.28
3524;BME280;1776;53.330;11.498;2022-08-16T10:38:12;53365.44;;;-147.39;43.69
3524;BME280;1776;53.330;11.498;2022-08-16T10:40:39;53355.19;;;-147.39;42.40
3524;BME280;1776;53.330;11.498;2022-08-16T10:43:04;53361.34;;;-147.39;42.63
3524;BME280;1776;53.330;11.498;2022-08-16T10:45:30;53347.00;;;-147.39;41.70
3524;BME280;1776;53.330;11.498;2022-08-16T10:47:56;53340.88;;;-147.39;41.71
3524;BME280;1776;53.330;11.498;2022-08-16T10:50:22;53340.88;;;-147.39;41.40
3524;BME280;1776;53.330;11.498;2022-08-16T10:52:47;53340.88;;;-147.39;41.31
3524;BME280;1776;53.330;11.498;2022-08-16T10:55:13;53332.66;;;-147.39;41.50
3524;BME280;1776;53.330;11.498;2022-08-16T10:57:39;53344.97;;;-147.39;40.84
3524;BME280;1776;53.330;11.498;2022-08-16T11:00:09;53330.63;;;-147.39;41.09
3524;BME280;1776;53.330;11.498;2022-08-16T11:02:37;53340.88;;;-147.39;41.09
3524;BME280;1776;53.330;11.498;2022-08-16T11:05:05;53334.72;;;-147.39;40.33
3524;BME280;1776;53.330;11.498;2022-08-16T11:07:30;53332.66;;;-147.39;41.12
3524;BME280;1776;53.330;11.498;2022-08-16T11:09:56;53342.91;;;-147.39;40.37
3524;BME280;1776;53.330;11.498;2022-08-16T11:12:23;53359.28;;;-147.39;40.05
3524;BME280;1776;53.330;11.498;2022-08-16T11:14:48;53355.19;;;-147.39;40.68
3524;BME280;1776;53.330;11.498;2022-08-16T11:17:13;53338.81;;;-147.39;40.53
3524;BME280;1776;53.330;11.498;2022-08-16T11:19:38;53340.88;;;-147.39;40.55
3524;BME280;1776;53.330;11.498;2022-08-16T11:22:06;53355.19;;;-147.39;40.77
3524;BME280;1776;53.330;11.498;2022-08-16T11:24:32;53355.19;;;-147.39;40.47
3524;BME280;1776;53.330;11.498;2022-08-16T11:26:57;53310.13;;;-147.39;40.38
3524;BME280;1776;53.330;11.498;2022-08-16T11:29:23;53328.56;;;-147.39;40.27
3524;BME280;1776;53.330;11.498;2022-08-16T11:31:48;53320.38;;;-147.39;40.32
3524;BME280;1776;53.330;11.498;2022-08-16T11:34:15;53308.09;;;-147.39;40.07
3524;BME280;1776;53.330;11.498;2022-08-16T11:36:40;53310.13;;;-147.39;39.44
3524;BME280;1776;53.330;11.498;2022-08-16T11:39:06;53332.66;;;-147.39;39.42
3524;BME280;1776;53.330;11.498;2022-08-16T11:41:31;53316.28;;;-147.39;39.55
3524;BME280;1776;53.330;11.498;2022-08-16T11:44:00;53306.03;;;-147.39;38.84
3524;BME280;1776;53.330;11.498;2022-08-16T11:46:25;53301.94;;;-147.39;38.92
3524;BME280;1776;53.330;11.498;2022-08-16T11:48:51;53326.53;;;-147.39;38.87
3524;BME280;1776;53.330;11.498;2022-08-16T11:51:17;53304.00;;;-147.39;38.47
3524;BME280;1776;53.330;11.498;2022-08-16T11:53:42;53334.72;;;-147.39;39.82
3524;BME280;1776;53.330;11.498;2022-08-16T11:56:07;53316.28;;;-147.39;38.98
3524;BME280;1776;53.330;11.498;2022-08-16T11:58:33;53324.47;;;-147.39;38.95
3524;BME280;1776;53.330;11.498;2022-08-16T12:00:59;53316.28;;;-147.39;39.61
3524;BME280;1776;53.330;11.498;2022-08-16T12:03:28;53299.88;;;-147.39;39.40
3524;BME280;1776;53.330;11.498;2022-08-16T12:05:56;53312.19;;;-147.39;39.30
3524;BME280;1776;53.330;11.498;2022-08-16T12:08:22;53295.78;;;-147.39;38.29
3524;BME280;1776;53.330;11.498;2022-08-16T12:10:48;53330.63;;;-147.39;38.63
3524;BME280;1776;53.330;11.498;2022-08-16T12:13:14;53324.47;;;-147.39;39.23
3524;BME280;1776;53.330;11.498;2022-08-16T12:15:41;53375.69;;;-147.39;39.27
3524;BME280;1776;53.330;11.498;2022-08-16T12:18:07;53295.78;;;-147.39;38.88
3524;BME280;1776;53.330;11.498;2022-08-16T12:20:35;53281.47;;;-147.39;38.69
3524;BME280;1776;53.330;11.498;2022-08-16T12:23:02;53279.41;;;-147.39;38.85
3524;BME280;1776;53.330;11.498;2022-08-16T12:25:29;53281.47;;;-147.39;38.38
3524;BME280;1776;53.330;11.498;2022-08-16T12:27:55;53271.22;;;-147.39;38.38
3524;BME280;1776;53.330;11.498;2022-08-16T12:30:24;53269.16;;;-147.39;38.13
3524;BME280;1776;53.330;11.498;2022-08-16T12:32:52;53269.16;;;-147.39;36.99
3524;BME280;1776;53.330;11.498;2022-08-16T12:35:20;53297.84;;;-147.39;36.36
3524;BME280;1776;53.330;11.498;2022-08-16T12:37:47;53265.06;;;-147.39;36.88
3524;BME280;1776;53.330;11.498;2022-08-16T12:40:17;53271.22;;;-147.39;37.34
3524;BME280;1776;53.330;11.498;2022-08-16T12:42:44;53297.84;;;-147.39;37.06
3524;BME280;1776;53.330;11.498;2022-08-16T12:45:12;53269.16;;;-147.39;37.01